Time;durP1;ratioP1;P1;durP2;ratioP2;P2;SDS_P1;SDS_P2;PMS_P1;PMS_P2;Temp;Humidity;BMP_temperature;BMP_pressure;BME280_temperature;BME280_humidity;BME280_pressure;Samples;Min_cycle;Max_cycle;Signal;HPM_P1;HPM_P2
2021/06/12 00:01:52;;;;;;;;;14.00;13.25;;;;;;;;3724424;38;17808;-62
2021/06/12 00:04:18;;;;;;;;;11.25;11.00;;;;;;;;3724655;38;20404;-61
2021/06/12 00:07:00;;;;;;;;;15.75;12.75;;;;;;;;3724882;38;17775;-61
2021/06/12 00:09:27;;;;;;;;;10.50;10.50;;;;;;;;3725006;37;17805;-62
2021/06/12 00:11:54;;;;;;;;;11.00;11.00;;;;;;;;3724874;37;20346;-63
2021/06/12 00:14:22;;;;;;;;;12.00;12.00;;;;;;;;3724939;37;20361;-62
2021/06/12 00:16:48;;;;;;;;;11.00;11.00;;;;;;;;3725084;37;20384;-63
2021/06/12 00:19:16;;;;;;;;;13.25;11.75;;;;;;;;3724947;37;20341;-61
2021/06/12 00:21:44;;;;;;;;;12.50;12.50;;;;;;;;3724735;37;20344;-62
2021/06/12 00:24:10;;;;;;;;;11.25;11.25;;;;;;;;3725034;37;20336;-63
2021/06/12 00:26:38;;;;;;;;;12.00;11.00;;;;;;;;3725068;37;20322;-61
2021/06/12 00:29:06;;;;;;;;;10.00;10.00;;;;;;;;3724670;37;20324;-63
2021/06/12 00:31:33;;;;;;;;;11.25;11.25;;;;;;;;3724961;37;20307;-62
2021/06/12 00:34:01;;;;;;;;;11.25;11.00;;;;;;;;3725129;37;20315;-62
2021/06/12 00:36:28;;;;;;;;;14.00;14.00;;;;;;;;3725236;37;20299;-63
2021/06/12 00:38:55;;;;;;;;;12.25;11.50;;;;;;;;3724972;37;20328;-63
2021/06/12 00:41:21;;;;;;;;;10.00;10.00;;;;;;;;3724854;38;20439;-62
2021/06/12 00:43:54;;;;;;;;;12.00;11.25;;;;;;;;3725189;38;20319;-62
2021/06/12 00:46:21;;;;;;;;;10.75;10.75;;;;;;;;3725292;37;20306;-63
2021/06/12 00:48:53;;;;;;;;;12.75;11.75;;;;;;;;3724714;38;20315;-63
2021/06/12 00:51:21;;;;;;;;;11.00;10.00;;;;;;;;3725189;37;20333;-63
2021/06/12 00:53:47;;;;;;;;;13.00;11.25;;;;;;;;3725194;38;20288;-61
2021/06/12 00:56:14;;;;;;;;;10.75;10.50;;;;;;;;3725119;38;20289;-63
2021/06/12 00:58:44;;;;;;;;;10.25;9.50;;;;;;;;3725119;37;20290;-63
2021/06/12 01:01:20;;;;;;;;;13.00;13.00;;;;;;;;3724936;37;20313;-61
2021/06/12 01:03:46;;;;;;;;;13.25;12.50;;;;;;;;3725144;37;20433;-61
2021/06/12 01:06:13;;;;;;;;;12.00;11.00;;;;;;;;3725108;38;20381;-61
2021/06/12 01:08:41;;;;;;;;;11.75;11.75;;;;;;;;3724856;37;20415;-63
2021/06/12 01:11:08;;;;;;;;;13.00;13.00;;;;;;;;3724938;38;20519;-62
2021/06/12 01:13:41;;;;;;;;;10.75;10.75;;;;;;;;3724399;38;20434;-62
2021/06/12 01:16:14;;;;;;;;;12.50;11.50;;;;;;;;3724643;37;20365;-63
2021/06/12 01:18:43;;;;;;;;;12.75;12.75;;;;;;;;3724883;37;20408;-64
2021/06/12 01:21:22;;;;;;;;;12.50;12.50;;;;;;;;3724927;38;20412;-62
2021/06/12 01:24:11;;;;;;;;;12.25;11.00;;;;;;;;3724900;38;20403;-62
2021/06/12 01:26:59;;;;;;;;;15.25;14.50;;;;;;;;3724926;37;20406;-62
2021/06/12 01:29:44;;;;;;;;;11.75;11.00;;;;;;;;3724901;38;20231;-62
2021/06/12 01:32:14;;;;;;;;;14.50;14.50;;;;;;;;3724721;38;20439;-63
2021/06/12 01:34:42;;;;;;;;;15.00;14.25;;;;;;;;3724982;38;20401;-62
2021/06/12 01:37:10;;;;;;;;;11.00;11.00;;;;;;;;3726060;37;20509;-62
2021/06/12 01:39:38;;;;;;;;;13.50;12.50;;;;;;;;3725128;37;20360;-61
2021/06/12 01:42:06;;;;;;;;;10.75;10.75;;;;;;;;3724593;38;20378;-61
2021/06/12 01:44:34;;;;;;;;;13.25;13.25;;;;;;;;3724500;37;20412;-62
2021/06/12 01:47:01;;;;;;;;;13.25;13.25;;;;;;;;3724506;38;20392;-61
2021/06/12 01:49:31;;;;;;;;;12.50;12.50;;;;;;;;3724854;37;20359;-63
2021/06/12 01:52:01;;;;;;;;;14.00;13.75;;;;;;;;3724469;38;20335;-61
2021/06/12 01:54:29;;;;;;;;;14.25;13.25;;;;;;;;3724891;38;20361;-61
2021/06/12 01:56:57;;;;;;;;;15.00;15.00;;;;;;;;3724915;37;20366;-63
2021/06/12 01:59:25;;;;;;;;;15.00;14.00;;;;;;;;3724495;38;20372;-63
2021/06/12 02:01:55;;;;;;;;;12.25;12.25;;;;;;;;3724484;38;20360;-62
2021/06/12 02:04:22;;;;;;;;;14.50;14.50;;;;;;;;3724798;38;20360;-63
2021/06/12 02:06:49;;;;;;;;;14.75;14.50;;;;;;;;3724995;38;20326;-62
2021/06/12 02:09:16;;;;;;;;;8.75;8.50;;;;;;;;3724938;37;20356;-61
2021/06/12 02:11:43;;;;;;;;;16.75;14.25;;;;;;;;3724483;37;20287;-62
2021/06/12 02:14:09;;;;;;;;;14.50;14.25;;;;;;;;3723910;37;20351;-61
2021/06/12 02:16:37;;;;;;;;;14.25;13.50;;;;;;;;3724106;38;20332;-63
2021/06/12 02:19:10;;;;;;;;;14.25;13.75;;;;;;;;3724816;38;20334;-63
2021/06/12 02:21:38;;;;;;;;;15.75;15.00;;;;;;;;3724722;38;20335;-63
2021/06/12 02:24:05;;;;;;;;;14.25;11.50;;;;;;;;3724201;37;20334;-62
2021/06/12 02:26:34;;;;;;;;;15.25;15.25;;;;;;;;3724639;38;21319;-61
2021/06/12 02:29:02;;;;;;;;;14.00;14.00;;;;;;;;3724059;37;21316;-63
2021/06/12 02:31:36;;;;;;;;;16.50;15.50;;;;;;;;3724536;38;21302;-63
2021/06/12 02:34:02;;;;;;;;;14.00;14.00;;;;;;;;3724793;38;20331;-63
2021/06/12 02:36:28;;;;;;;;;16.75;16.00;;;;;;;;3724745;38;20319;-63
2021/06/12 02:38:55;;;;;;;;;14.25;14.25;;;;;;;;3724886;37;21323;-63
2021/06/12 02:41:22;;;;;;;;;20.50;20.25;;;;;;;;3724888;37;21305;-63
2021/06/12 02:43:48;;;;;;;;;15.75;14.75;;;;;;;;3724838;37;21309;-63
2021/06/12 02:46:17;;;;;;;;;16.25;15.75;;;;;;;;3724780;38;21281;-63
2021/06/12 02:48:47;;;;;;;;;20.25;18.75;;;;;;;;3724238;37;21278;-63
2021/06/12 02:51:13;;;;;;;;;19.25;19.00;;;;;;;;3724444;38;21287;-62
2021/06/12 02:53:41;;;;;;;;;18.50;16.25;;;;;;;;3724825;37;21271;-64
2021/06/12 02:56:08;;;;;;;;;18.75;17.50;;;;;;;;3724943;38;21281;-62
2021/06/12 02:58:35;;;;;;;;;17.75;17.75;;;;;;;;3724831;38;21281;-62
2021/06/12 03:01:02;;;;;;;;;16.00;16.00;;;;;;;;3724858;38;21265;-62
2021/06/12 03:03:32;;;;;;;;;17.50;16.50;;;;;;;;3724876;37;21281;-63
2021/06/12 03:05:59;;;;;;;;;25.25;24.50;;;;;;;;3724749;38;21292;-63
2021/06/12 03:08:31;;;;;;;;;17.25;16.50;;;;;;;;3724705;37;21243;-62
2021/06/12 03:10:59;;;;;;;;;11.75;11.75;;;;;;;;3724880;38;21264;-62
2021/06/12 03:13:28;;;;;;;;;18.00;18.00;;;;;;;;3724546;38;21239;-63
2021/06/12 03:15:55;;;;;;;;;19.00;18.00;;;;;;;;3724773;38;21233;-63
2021/06/12 03:18:29;;;;;;;;;18.25;17.75;;;;;;;;3725152;38;21254;-64
2021/06/12 03:21:03;;;;;;;;;22.75;21.25;;;;;;;;3724921;38;21265;-62
2021/06/12 03:23:30;;;;;;;;;19.75;19.75;;;;;;;;3724976;37;21224;-63
2021/06/12 03:25:58;;;;;;;;;32.75;31.75;;;;;;;;3725183;37;21224;-62
2021/06/12 03:28:24;;;;;;;;;27.50;27.00;;;;;;;;3725052;37;21236;-62
2021/06/12 03:30:51;;;;;;;;;23.50;23.50;;;;;;;;3725094;37;21235;-62
2021/06/12 03:33:17;;;;;;;;;25.50;24.75;;;;;;;;3725423;37;21224;-61
2021/06/12 03:35:45;;;;;;;;;35.75;33.50;;;;;;;;3725370;38;21225;-61
2021/06/12 03:38:11;;;;;;;;;33.00;31.75;;;;;;;;3724839;38;21219;-62
2021/06/12 03:40:39;;;;;;;;;29.00;27.50;;;;;;;;3724685;37;21200;-62
2021/06/12 03:43:08;;;;;;;;;20.25;20.25;;;;;;;;3724762;37;21188;-62
2021/06/12 03:45:41;;;;;;;;;23.00;22.00;;;;;;;;3725414;38;21197;-61
2021/06/12 03:48:08;;;;;;;;;27.75;26.75;;;;;;;;3725266;37;21195;-61
2021/06/12 03:50:35;;;;;;;;;19.50;19.50;;;;;;;;3724914;37;21183;-62
2021/06/12 03:53:02;;;;;;;;;20.75;20.75;;;;;;;;3726325;37;21208;-63
2021/06/12 03:55:29;;;;;;;;;20.25;20.25;;;;;;;;3726285;37;21203;-64
2021/06/12 03:57:55;;;;;;;;;19.50;19.00;;;;;;;;3724849;38;21184;-64
2021/06/12 04:00:22;;;;;;;;;24.25;23.50;;;;;;;;3725170;37;21200;-64
2021/06/12 04:02:49;;;;;;;;;20.75;20.75;;;;;;;;3725669;37;21180;-63
2021/06/12 04:05:15;;;;;;;;;19.50;19.00;;;;;;;;3726521;37;21195;-62
2021/06/12 04:07:41;;;;;;;;;19.00;19.00;;;;;;;;3724706;37;21189;-62
2021/06/12 04:10:08;;;;;;;;;18.25;17.00;;;;;;;;3724966;38;21154;-62
2021/06/12 04:12:37;;;;;;;;;17.75;17.75;;;;;;;;3724875;38;18491;-61
2021/06/12 04:15:04;;;;;;;;;26.25;26.25;;;;;;;;3724709;37;21135;-61
2021/06/12 04:17:32;;;;;;;;;23.00;22.75;;;;;;;;3725041;37;21170;-61
2021/06/12 04:19:58;;;;;;;;;22.25;21.25;;;;;;;;3727271;38;21064;-62
2021/06/12 04:22:25;;;;;;;;;15.50;15.50;;;;;;;;3724793;37;21160;-63
2021/06/12 04:24:51;;;;;;;;;20.00;19.75;;;;;;;;3725095;37;21156;-63
2021/06/12 04:27:17;;;;;;;;;19.75;19.00;;;;;;;;3725164;38;21144;-62
2021/06/12 04:29:44;;;;;;;;;23.75;23.75;;;;;;;;3725418;37;18450;-62
2021/06/12 04:32:10;;;;;;;;;22.00;21.50;;;;;;;;3725058;37;21150;-62
2021/06/12 04:34:38;;;;;;;;;45.75;39.00;;;;;;;;3725063;37;18425;-62
2021/06/12 04:37:06;;;;;;;;;19.75;19.25;;;;;;;;3725278;38;18429;-62
2021/06/12 04:39:32;;;;;;;;;19.50;19.50;;;;;;;;3725080;37;21147;-63
2021/06/12 04:41:58;;;;;;;;;20.75;20.00;;;;;;;;3725217;38;21135;-63
2021/06/12 04:44:25;;;;;;;;;22.50;21.50;;;;;;;;3725125;38;21114;-62
2021/06/12 04:46:52;;;;;;;;;20.00;20.00;;;;;;;;3725140;37;21112;-62
2021/06/12 04:49:19;;;;;;;;;23.75;22.25;;;;;;;;3724900;37;21138;-63
2021/06/12 04:51:47;;;;;;;;;19.25;19.25;;;;;;;;3724944;37;21121;-62
2021/06/12 04:54:14;;;;;;;;;22.00;21.25;;;;;;;;3724943;37;21111;-63
2021/06/12 04:56:42;;;;;;;;;20.00;19.00;;;;;;;;3724890;38;21114;-62
2021/06/12 04:59:08;;;;;;;;;21.75;21.00;;;;;;;;3724988;38;21226;-64
2021/06/12 05:01:34;;;;;;;;;20.50;20.50;;;;;;;;3724764;37;21117;-63
2021/06/12 05:04:00;;;;;;;;;22.75;22.75;;;;;;;;3724992;37;18392;-63
2021/06/12 05:06:28;;;;;;;;;22.50;22.00;;;;;;;;3725374;38;18386;-64
2021/06/12 05:08:57;;;;;;;;;24.00;23.25;;;;;;;;3725053;37;21102;-64
2021/06/12 05:11:23;;;;;;;;;23.25;22.75;;;;;;;;3725133;38;21082;-64
2021/06/12 05:13:48;;;;;;;;;19.50;19.50;;;;;;;;3724819;38;18406;-63
2021/06/12 05:16:15;;;;;;;;;14.50;12.75;;;;;;;;3725258;38;18382;-63
2021/06/12 05:18:44;;;;;;;;;21.00;21.00;;;;;;;;3725235;38;18371;-64
2021/06/12 05:21:15;;;;;;;;;21.25;20.50;;;;;;;;3725105;38;21081;-64
2021/06/12 05:23:42;;;;;;;;;19.25;19.00;;;;;;;;3724878;37;21092;-62
2021/06/12 05:26:14;;;;;;;;;22.25;21.75;;;;;;;;3724708;37;21068;-62
2021/06/12 05:28:41;;;;;;;;;26.25;25.25;;;;;;;;3725112;37;21155;-63
2021/06/12 05:31:07;;;;;;;;;20.50;19.75;;;;;;;;3724666;37;21095;-62
2021/06/12 05:33:33;;;;;;;;;17.25;17.25;;;;;;;;3728023;38;21059;-63
2021/06/12 05:36:01;;;;;;;;;16.25;16.25;;;;;;;;3726686;37;18358;-63
2021/06/12 05:38:27;;;;;;;;;14.00;14.00;;;;;;;;3725723;38;21091;-64
2021/06/12 05:40:54;;;;;;;;;15.50;14.75;;;;;;;;3725706;38;21080;-63
2021/06/12 05:43:20;;;;;;;;;15.00;15.00;;;;;;;;3725285;37;21050;-61
2021/06/12 05:45:46;;;;;;;;;18.00;18.00;;;;;;;;3725375;37;21076;-63
2021/06/12 05:48:12;;;;;;;;;15.50;15.50;;;;;;;;3725155;37;21079;-63
2021/06/12 05:50:39;;;;;;;;;16.50;16.00;;;;;;;;3725188;38;21039;-62
2021/06/12 05:53:05;;;;;;;;;19.50;18.25;;;;;;;;3725155;38;18329;-62
2021/06/12 05:55:31;;;;;;;;;12.75;12.75;;;;;;;;3724996;38;21029;-64
2021/06/12 05:57:58;;;;;;;;;15.00;15.00;;;;;;;;3725187;38;18314;-64
2021/06/12 06:00:26;;;;;;;;;18.50;17.50;;;;;;;;3724703;37;21059;-64
2021/06/12 06:02:52;;;;;;;;;12.25;12.25;;;;;;;;3724350;37;20906;-66
2021/06/12 06:05:17;;;;;;;;;15.75;15.75;;;;;;;;3725279;37;20902;-63
2021/06/12 06:07:44;;;;;;;;;15.00;15.00;;;;;;;;3725080;37;20899;-62
2021/06/12 06:10:10;;;;;;;;;18.25;17.75;;;;;;;;3725111;37;18297;-64
2021/06/12 06:12:38;;;;;;;;;14.25;13.25;;;;;;;;3724993;38;20894;-66
2021/06/12 06:15:09;;;;;;;;;13.25;12.50;;;;;;;;3724727;38;20930;-63
2021/06/12 06:17:37;;;;;;;;;10.00;10.00;;;;;;;;3732114;38;20968;-65
2021/06/12 06:20:05;;;;;;;;;11.75;11.75;;;;;;;;3737618;38;20980;-66
2021/06/12 06:22:43;;;;;;;;;10.75;10.75;;;;;;;;3738544;37;20892;-66
2021/06/12 06:25:11;;;;;;;;;11.75;10.75;;;;;;;;3731130;37;20876;-66
2021/06/12 06:27:39;;;;;;;;;12.25;12.25;;;;;;;;3724784;38;20881;-64
2021/06/12 06:30:05;;;;;;;;;11.25;11.25;;;;;;;;3725155;37;20874;-65
2021/06/12 06:32:33;;;;;;;;;11.00;10.00;;;;;;;;3725675;37;20948;-65
2021/06/12 06:35:04;;;;;;;;;11.50;11.50;;;;;;;;3725096;37;20836;-64
2021/06/12 06:37:31;;;;;;;;;12.25;11.00;;;;;;;;3725155;37;20924;-64
2021/06/12 06:39:57;;;;;;;;;12.00;12.00;;;;;;;;3725162;38;20930;-64
2021/06/12 06:42:23;;;;;;;;;11.25;11.25;;;;;;;;3724967;37;20917;-65
2021/06/12 06:44:49;;;;;;;;;11.50;11.50;;;;;;;;3725336;37;18259;-65
2021/06/12 06:47:15;;;;;;;;;10.00;10.00;;;;;;;;3725350;37;20833;-64
2021/06/12 06:49:41;;;;;;;;;11.50;11.00;;;;;;;;3724817;37;18264;-62
2021/06/12 06:52:07;;;;;;;;;11.00;10.00;;;;;;;;3725288;38;20851;-62
2021/06/12 06:54:33;;;;;;;;;12.50;12.50;;;;;;;;3725232;37;20902;-63
2021/06/12 06:57:00;;;;;;;;;14.75;14.75;;;;;;;;3724887;37;18232;-65
2021/06/12 06:59:26;;;;;;;;;8.75;8.00;;;;;;;;3725570;37;20858;-65
2021/06/12 07:01:54;;;;;;;;;12.25;12.25;;;;;;;;3726261;38;20819;-62
2021/06/12 07:04:24;;;;;;;;;13.00;11.75;;;;;;;;3725040;37;20914;-62
2021/06/12 07:06:50;;;;;;;;;10.25;10.25;;;;;;;;3725284;37;20953;-64
2021/06/12 07:09:17;;;;;;;;;10.75;10.75;;;;;;;;3725106;37;20971;-64
2021/06/12 07:11:44;;;;;;;;;11.00;10.00;;;;;;;;3724312;37;18250;-64
2021/06/12 07:14:11;;;;;;;;;11.50;11.50;;;;;;;;3724104;38;21040;-64
2021/06/12 07:16:37;;;;;;;;;12.75;12.00;;;;;;;;3724182;37;21038;-63
2021/06/12 07:19:03;;;;;;;;;9.00;9.00;;;;;;;;3724301;37;21035;-63
2021/06/12 07:21:29;;;;;;;;;10.75;10.75;;;;;;;;3724786;37;18216;-63
2021/06/12 07:23:58;;;;;;;;;13.75;13.00;;;;;;;;3724414;37;18208;-65
2021/06/12 07:26:24;;;;;;;;;10.00;10.00;;;;;;;;3724570;38;21029;-66
2021/06/12 07:28:51;;;;;;;;;10.50;10.50;;;;;;;;3724936;38;21036;-65
2021/06/12 07:31:17;;;;;;;;;9.75;9.00;;;;;;;;3724921;37;18199;-66
2021/06/12 07:33:44;;;;;;;;;8.50;8.25;;;;;;;;3724398;38;20909;-63
2021/06/12 07:36:10;;;;;;;;;10.00;9.50;;;;;;;;3724793;38;20894;-63
2021/06/12 07:38:36;;;;;;;;;7.00;7.00;;;;;;;;3724897;38;21005;-64
2021/06/12 07:41:03;;;;;;;;;7.25;7.25;;;;;;;;3724883;38;18213;-63
2021/06/12 07:43:28;;;;;;;;;7.50;7.25;;;;;;;;3724603;38;18186;-63
2021/06/12 07:45:54;;;;;;;;;8.25;8.25;;;;;;;;3725713;37;20954;-63
2021/06/12 07:48:21;;;;;;;;;7.00;7.00;;;;;;;;3730241;37;18199;-65
2021/06/12 07:50:48;;;;;;;;;10.50;10.00;;;;;;;;3726548;37;21028;-65
2021/06/12 07:53:23;;;;;;;;;7.75;7.75;;;;;;;;3725381;38;20983;-66
2021/06/12 07:55:50;;;;;;;;;7.75;7.75;;;;;;;;3724996;37;20920;-65
2021/06/12 07:58:20;;;;;;;;;6.25;6.00;;;;;;;;3725040;37;20938;-63
2021/06/12 08:00:46;;;;;;;;;7.50;7.50;;;;;;;;3724451;37;18185;-65
2021/06/12 08:03:12;;;;;;;;;10.50;8.50;;;;;;;;3725273;38;20887;-67
2021/06/12 08:05:38;;;;;;;;;7.50;7.50;;;;;;;;3724939;37;20893;-66
2021/06/12 08:08:05;;;;;;;;;8.25;8.25;;;;;;;;3724902;37;20806;-66
2021/06/12 08:10:33;;;;;;;;;6.50;6.50;;;;;;;;3724812;38;20895;-67
2021/06/12 08:13:00;;;;;;;;;9.25;8.50;;;;;;;;3724895;38;20869;-68
2021/06/12 08:15:27;;;;;;;;;7.50;7.50;;;;;;;;3724510;37;18159;-69
2021/06/12 08:17:53;;;;;;;;;9.00;9.00;;;;;;;;3725033;38;20889;-64
2021/06/12 08:20:20;;;;;;;;;10.25;10.25;;;;;;;;3725668;37;20855;-71
2021/06/12 08:22:47;;;;;;;;;7.25;7.25;;;;;;;;3725346;38;20902;-72
2021/06/12 08:25:14;;;;;;;;;8.50;8.25;;;;;;;;3725888;37;20860;-73
2021/06/12 08:27:41;;;;;;;;;8.00;8.00;;;;;;;;3725074;37;20875;-73
2021/06/12 08:30:07;;;;;;;;;4.50;4.50;;;;;;;;3725386;38;20773;-73
2021/06/12 08:32:34;;;;;;;;;9.00;9.00;;;;;;;;3725390;38;18131;-73
2021/06/12 08:35:00;;;;;;;;;8.25;8.00;;;;;;;;3725390;38;20908;-70
2021/06/12 08:37:26;;;;;;;;;7.75;7.75;;;;;;;;3726628;37;20865;-71
2021/06/12 08:39:54;;;;;;;;;8.00;8.00;;;;;;;;3725440;37;20847;-72
2021/06/12 08:42:20;;;;;;;;;7.25;7.25;;;;;;;;3725302;37;20838;-71
2021/06/12 08:44:47;;;;;;;;;9.25;9.25;;;;;;;;3726157;38;20813;-74
2021/06/12 08:47:13;;;;;;;;;11.25;11.25;;;;;;;;3727007;37;18202;-72
2021/06/12 08:49:39;;;;;;;;;10.25;10.25;;;;;;;;3729449;38;20868;-71
2021/06/12 08:52:06;;;;;;;;;10.00;9.00;;;;;;;;3727177;37;20842;-77
2021/06/12 08:54:33;;;;;;;;;13.75;13.00;;;;;;;;3725184;37;20854;-74
2021/06/12 08:56:59;;;;;;;;;10.75;10.75;;;;;;;;3724993;38;20902;-72
2021/06/12 08:59:27;;;;;;;;;9.50;9.50;;;;;;;;3724896;38;20843;-75
2021/06/12 09:01:55;;;;;;;;;8.50;8.50;;;;;;;;3725023;37;18097;-73
2021/06/12 09:04:32;;;;;;;;;7.00;6.00;;;;;;;;3724745;37;20666;-74
2021/06/12 09:07:19;;;;;;;;;9.75;9.50;;;;;;;;3724935;38;20641;-74
2021/06/12 09:09:46;;;;;;;;;9.00;9.00;;;;;;;;3725355;38;20685;-75
2021/06/12 09:12:12;;;;;;;;;7.75;7.75;;;;;;;;3725351;38;20665;-72
2021/06/12 09:14:40;;;;;;;;;7.50;7.50;;;;;;;;3725565;37;20592;-72
2021/06/12 09:17:06;;;;;;;;;11.00;10.25;;;;;;;;3724955;37;20634;-65
2021/06/12 09:19:40;;;;;;;;;10.00;9.00;;;;;;;;3726528;37;20694;-75
2021/06/12 09:22:10;;;;;;;;;7.50;7.50;;;;;;;;3725729;37;20662;-73
2021/06/12 09:24:46;;;;;;;;;9.25;9.25;;;;;;;;3725049;38;20649;-74
2021/06/12 09:27:17;;;;;;;;;10.00;10.00;;;;;;;;3724881;38;20649;-75
2021/06/12 09:29:44;;;;;;;;;7.25;7.25;;;;;;;;3725634;38;20684;-74
2021/06/12 09:32:12;;;;;;;;;8.00;8.00;;;;;;;;3725716;38;20650;-75
2021/06/12 09:34:46;;;;;;;;;9.00;9.00;;;;;;;;3725348;38;20627;-73
2021/06/12 09:37:17;;;;;;;;;9.25;9.25;;;;;;;;3725758;38;20597;-77
2021/06/12 09:40:15;;;;;;;;;8.50;8.50;;;;;;;;3725241;37;20580;-75
2021/06/12 09:42:54;;;;;;;;;9.25;9.25;;;;;;;;3728088;37;20604;-69
2021/06/12 09:45:24;;;;;;;;;8.00;7.75;;;;;;;;3726358;38;20596;-74
2021/06/12 09:47:52;;;;;;;;;9.50;9.00;;;;;;;;3724936;37;20614;-76
2021/06/12 09:50:21;;;;;;;;;8.25;8.25;;;;;;;;3725485;38;20542;-76
2021/06/12 09:52:51;;;;;;;;;9.25;9.25;;;;;;;;3725324;38;20590;-73
2021/06/12 09:55:22;;;;;;;;;10.00;10.00;;;;;;;;3725786;38;20547;-74
2021/06/12 09:57:51;;;;;;;;;6.25;6.25;;;;;;;;3724931;38;20667;-74
2021/06/12 10:00:19;;;;;;;;;9.00;9.00;;;;;;;;3726232;38;20607;-72
2021/06/12 10:02:49;;;;;;;;;9.00;9.00;;;;;;;;3724849;37;20539;-74
2021/06/12 10:05:17;;;;;;;;;9.50;9.50;;;;;;;;3725291;37;20607;-74
2021/06/12 10:07:44;;;;;;;;;8.75;8.75;;;;;;;;3724772;37;20559;-73
2021/06/12 10:10:12;;;;;;;;;8.50;8.50;;;;;;;;3725008;37;20545;-73
2021/06/12 10:12:39;;;;;;;;;7.25;7.25;;;;;;;;3724881;37;20585;-73
2021/06/12 10:15:08;;;;;;;;;8.00;8.00;;;;;;;;3724788;38;20500;-73
2021/06/12 10:17:40;;;;;;;;;11.00;11.00;;;;;;;;3724638;38;20580;-73
2021/06/12 10:20:08;;;;;;;;;9.25;9.25;;;;;;;;3724916;38;20590;-70
2021/06/12 10:22:40;;;;;;;;;8.25;8.25;;;;;;;;3724542;37;20492;-72
2021/06/12 10:25:10;;;;;;;;;7.25;7.25;;;;;;;;3724557;38;20568;-73
2021/06/12 10:27:37;;;;;;;;;8.50;8.25;;;;;;;;3724432;37;20565;-70
2021/06/12 10:30:04;;;;;;;;;9.25;8.75;;;;;;;;3724360;38;20573;-70
2021/06/12 10:32:30;;;;;;;;;8.75;8.75;;;;;;;;3725237;37;20575;-70
2021/06/12 10:35:02;;;;;;;;;8.25;8.25;;;;;;;;3724789;37;20517;-70
2021/06/12 10:37:28;;;;;;;;;7.25;7.25;;;;;;;;3724767;38;20538;-71
2021/06/12 10:40:02;;;;;;;;;7.00;7.00;;;;;;;;3724724;38;20551;-70
2021/06/12 10:42:29;;;;;;;;;11.00;10.00;;;;;;;;3724808;37;17941;-70
2021/06/12 10:44:59;;;;;;;;;6.75;6.25;;;;;;;;3724493;37;20566;-71
2021/06/12 10:47:39;;;;;;;;;8.25;8.25;;;;;;;;3724883;37;20768;-73
2021/06/12 10:50:23;;;;;;;;;7.25;7.25;;;;;;;;3724422;38;20544;-72
2021/06/12 10:52:52;;;;;;;;;10.00;9.00;;;;;;;;3724934;38;20545;-71
2021/06/12 10:55:40;;;;;;;;;8.75;8.25;;;;;;;;3724688;38;20542;-71
2021/06/12 10:58:24;;;;;;;;;7.50;7.50;;;;;;;;3725076;38;20546;-73
2021/06/12 11:01:19;;;;;;;;;8.00;8.00;;;;;;;;3724953;37;20556;-71
2021/06/12 11:04:17;;;;;;;;;6.00;6.00;;;;;;;;3724883;38;20517;-72
2021/06/12 11:07:06;;;;;;;;;8.50;8.50;;;;;;;;3725736;38;20522;-71
2021/06/12 11:09:35;;;;;;;;;8.75;8.00;;;;;;;;3724791;37;20503;-71
2021/06/12 11:12:24;;;;;;;;;7.00;7.00;;;;;;;;3724444;37;20422;-71
2021/06/12 11:15:02;;;;;;;;;9.00;9.00;;;;;;;;3725209;38;20471;-71
2021/06/12 11:17:29;;;;;;;;;11.25;11.25;;;;;;;;3724421;37;20491;-71
2021/06/12 11:20:15;;;;;;;;;9.25;9.25;;;;;;;;3724341;38;20528;-73
2021/06/12 11:22:56;;;;;;;;;8.75;8.00;;;;;;;;3724798;37;20441;-72
2021/06/12 11:25:42;;;;;;;;;9.00;9.00;;;;;;;;3724862;38;20452;-72
2021/06/12 11:28:22;;;;;;;;;9.00;9.00;;;;;;;;3724747;37;20425;-70
2021/06/12 11:30:50;;;;;;;;;8.75;8.75;;;;;;;;3725015;37;20419;-70
2021/06/12 11:33:17;;;;;;;;;9.75;9.75;;;;;;;;3725750;37;20602;-73
2021/06/12 11:36:00;;;;;;;;;8.75;8.75;;;;;;;;3725084;37;20470;-72
2021/06/12 11:38:45;;;;;;;;;9.00;8.75;;;;;;;;3729292;38;20411;-74
2021/06/12 11:41:15;;;;;;;;;9.25;9.25;;;;;;;;3730119;37;20458;-72
2021/06/12 11:43:45;;;;;;;;;10.00;9.00;;;;;;;;3725220;38;20392;-72
2021/06/12 11:46:19;;;;;;;;;8.00;8.00;;;;;;;;3727105;37;20474;-71
2021/06/12 11:48:50;;;;;;;;;7.25;7.25;;;;;;;;3724773;37;20404;-69
2021/06/12 11:51:36;;;;;;;;;8.00;8.00;;;;;;;;3724998;38;20389;-72
2021/06/12 11:54:20;;;;;;;;;7.75;7.75;;;;;;;;3724886;37;20375;-71
2021/06/12 11:56:54;;;;;;;;;7.50;7.50;;;;;;;;3724896;38;20355;-72
2021/06/12 11:59:22;;;;;;;;;7.00;7.00;;;;;;;;3724484;37;20393;-71
2021/06/12 12:02:09;;;;;;;;;;;;;;;;;;;;;
2021/06/12 12:04:36;;;;;;;;;7.50;7.50;;;;;;;;3725244;37;20362;-71
2021/06/12 12:07:06;;;;;;;;;9.00;9.00;;;;;;;;3724973;38;20396;-73
2021/06/12 12:09:37;;;;;;;;;7.75;7.75;;;;;;;;3724708;38;20374;-71
2021/06/12 12:12:11;;;;;;;;;9.00;9.00;;;;;;;;3724307;38;20378;-71
2021/06/12 12:14:39;;;;;;;;;8.75;8.75;;;;;;;;3724442;37;20437;-71
2021/06/12 12:17:12;;;;;;;;;7.50;7.50;;;;;;;;3724462;38;20439;-72
2021/06/12 12:19:42;;;;;;;;;7.25;7.25;;;;;;;;3725275;38;20420;-75
2021/06/12 12:22:11;;;;;;;;;202.00;196.40;;;;;;;;3725377;37;20425;-73
2021/06/12 12:24:37;;;;;;;;;1.50;1.50;;;;;;;;3728495;37;17813;-71
2021/06/12 12:27:07;;;;;;;;;6.75;6.75;;;;;;;;3725167;37;20335;-72
2021/06/12 12:29:34;;;;;;;;;8.25;8.25;;;;;;;;3725180;37;17813;-72
2021/06/12 12:32:01;;;;;;;;;8.00;7.50;;;;;;;;3725152;37;20403;-72
2021/06/12 12:34:38;;;;;;;;;8.25;8.25;;;;;;;;3725028;37;20415;-70
2021/06/12 12:37:06;;;;;;;;;9.25;8.75;;;;;;;;3725306;37;20426;-71
2021/06/12 12:39:40;;;;;;;;;9.00;8.50;;;;;;;;3725214;37;20401;-72
2021/06/12 12:42:24;;;;;;;;;13.50;12.75;;;;;;;;3724953;38;20404;-71
2021/06/12 12:44:53;;;;;;;;;7.25;7.25;;;;;;;;3725092;38;20396;-71
2021/06/12 12:47:20;;;;;;;;;6.50;6.50;;;;;;;;3725265;37;20406;-70
2021/06/12 12:49:46;;;;;;;;;7.00;7.00;;;;;;;;3724925;38;20405;-72
2021/06/12 12:52:22;;;;;;;;;19.50;19.50;;;;;;;;3725025;38;20402;-71
2021/06/12 12:54:58;;;;;;;;;8.50;8.50;;;;;;;;3725647;37;20366;-71
2021/06/12 12:57:25;;;;;;;;;6.50;6.50;;;;;;;;3724912;37;20376;-71
2021/06/12 12:59:51;;;;;;;;;6.00;6.00;;;;;;;;3725184;38;20396;-72
2021/06/12 13:02:18;;;;;;;;;8.00;8.00;;;;;;;;3725269;38;20493;-72
2021/06/12 13:04:45;;;;;;;;;8.00;7.00;;;;;;;;3725143;37;20598;-74
2021/06/12 13:07:18;;;;;;;;;6.75;6.75;;;;;;;;3725442;37;20481;-73
2021/06/12 13:09:48;;;;;;;;;7.00;6.25;;;;;;;;3726307;38;20476;-75
2021/06/12 13:12:21;;;;;;;;;6.00;6.00;;;;;;;;3725868;37;20473;-73
2021/06/12 13:15:00;;;;;;;;;15.50;14.75;;;;;;;;3732244;38;20515;-75
2021/06/12 13:17:28;;;;;;;;;112.00;109.25;;;;;;;;3726172;38;20424;-72
2021/06/12 13:19:55;;;;;;;;;14.75;14.75;;;;;;;;3725235;38;17758;-73
2021/06/12 13:22:28;;;;;;;;;21.50;20.75;;;;;;;;3725619;37;20429;-73
2021/06/12 13:24:59;;;;;;;;;8.00;8.00;;;;;;;;3728174;37;20451;-76
2021/06/12 13:27:52;;;;;;;;;9.50;9.50;;;;;;;;3735511;37;20361;-74
2021/06/12 13:30:37;;;;;;;;;6.25;6.25;;;;;;;;3739483;38;20425;-74
2021/06/12 13:33:14;;;;;;;;;11.75;11.75;;;;;;;;3740829;38;20367;-71
2021/06/12 13:35:44;;;;;;;;;12.75;12.75;;;;;;;;3739968;38;20447;-68
2021/06/12 13:38:30;;;;;;;;;7.50;6.75;;;;;;;;3736495;38;20390;-77
2021/06/12 13:41:16;;;;;;;;;7.00;6.00;;;;;;;;3730094;38;20390;-79
2021/06/12 13:43:47;;;;;;;;;7.50;7.50;;;;;;;;3725244;37;20384;-77
2021/06/12 13:46:23;;;;;;;;;6.75;6.75;;;;;;;;3725418;38;20471;-78
2021/06/12 13:48:50;;;;;;;;;6.50;6.50;;;;;;;;3725508;38;20375;-78
2021/06/12 13:51:17;;;;;;;;;6.75;6.75;;;;;;;;3725227;37;20422;-80
2021/06/12 13:53:58;;;;;;;;;8.00;8.00;;;;;;;;3725046;38;20426;-80
2021/06/12 13:56:28;;;;;;;;;8.00;8.00;;;;;;;;3725231;37;20416;-79
2021/06/12 13:58:54;;;;;;;;;7.75;7.75;;;;;;;;3725052;38;20405;-79
2021/06/12 14:01:21;;;;;;;;;12.50;12.50;;;;;;;;3724846;37;20335;-80
2021/06/12 14:03:47;;;;;;;;;7.00;7.00;;;;;;;;3724352;38;20380;-78
2021/06/12 14:06:15;;;;;;;;;7.50;7.50;;;;;;;;3724901;37;20332;-78
2021/06/12 14:08:42;;;;;;;;;10.00;10.00;;;;;;;;3725294;38;20384;-78
2021/06/12 14:11:08;;;;;;;;;5.50;5.50;;;;;;;;3725204;37;17697;-76
2021/06/12 14:13:34;;;;;;;;;239.20;225.40;;;;;;;;3725159;37;20385;-76
2021/06/12 14:16:02;;;;;;;;;10.00;10.00;;;;;;;;3725467;38;17668;-77
2021/06/12 14:18:28;;;;;;;;;47.00;40.25;;;;;;;;3725230;38;20343;-75
2021/06/12 14:20:53;;;;;;;;;7.00;7.00;;;;;;;;3725175;37;20418;-76
2021/06/12 14:23:21;;;;;;;;;41.75;36.25;;;;;;;;3724900;37;17680;-73
2021/06/12 14:25:50;;;;;;;;;17.50;15.75;;;;;;;;3725460;38;17682;-77
2021/06/12 14:28:18;;;;;;;;;21.50;21.50;;;;;;;;3725446;38;20349;-80
2021/06/12 14:30:44;;;;;;;;;20.25;18.50;;;;;;;;3725767;38;20338;-78
2021/06/12 14:33:10;;;;;;;;;7.50;6.75;;;;;;;;3725734;37;20335;-78
2021/06/12 14:35:38;;;;;;;;;7.25;7.25;;;;;;;;3725998;37;17640;-77
2021/06/12 14:38:04;;;;;;;;;6.50;6.50;;;;;;;;3724471;37;20306;-77
2021/06/12 14:40:30;;;;;;;;;9.00;9.00;;;;;;;;3724715;38;20362;-73
2021/06/12 14:42:56;;;;;;;;;10.00;10.00;;;;;;;;3725537;38;17636;-79